sensor_id;sensor_type;location;lat;lon;timestamp;P1;durP1;ratioP1;P2;durP2;ratioP2
34982;SDS011;21187;50.976;13.720;2023-03-24T00:02:34;3.00;;;1.27;;
34982;SDS011;21187;50.976;13.720;2023-03-24T00:07:38;6.72;;;2.10;;
34982;SDS011;21187;50.976;13.720;2023-03-24T00:12:40;3.15;;;1.52;;
34982;SDS011;21187;50.976;13.720;2023-03-24T00:17:43;6.88;;;1.67;;
34982;SDS011;21187;50.976;13.720;2023-03-24T00:22:48;7.85;;;2.00;;
34982;SDS011;21187;50.976;13.720;2023-03-24T00:27:57;4.40;;;2.13;;
34982;SDS011;21187;50.976;13.720;2023-03-24T00:32:59;3.20;;;1.60;;
34982;SDS011;21187;50.976;13.720;2023-03-24T00:38:02;8.13;;;2.47;;
34982;SDS011;21187;50.976;13.720;2023-03-24T00:43:04;3.67;;;2.08;;
34982;SDS011;21187;50.976;13.720;2023-03-24T00:48:06;4.18;;;1.83;;
34982;SDS011;21187;50.976;13.720;2023-03-24T00:53:08;4.90;;;1.50;;
34982;SDS011;21187;50.976;13.720;2023-03-24T00:58:13;4.25;;;1.77;;
34982;SDS011;21187;50.976;13.720;2023-03-24T01:03:18;3.92;;;1.88;;
34982;SDS011;21187;50.976;13.720;2023-03-24T01:08:27;5.55;;;1.92;;
34982;SDS011;21187;50.976;13.720;2023-03-24T01:13:29;4.32;;;1.90;;
34982;SDS011;21187;50.976;13.720;2023-03-24T01:18:32;4.47;;;1.70;;
34982;SDS011;21187;50.976;13.720;2023-03-24T01:23:35;4.05;;;2.10;;
34982;SDS011;21187;50.976;13.720;2023-03-24T01:28:38;3.83;;;1.95;;
34982;SDS011;21187;50.976;13.720;2023-03-24T01:33:41;5.88;;;2.00;;
34982;SDS011;21187;50.976;13.720;2023-03-24T01:38:43;3.95;;;1.70;;
34982;SDS011;21187;50.976;13.720;2023-03-24T01:43:46;3.97;;;2.15;;
34982;SDS011;21187;50.976;13.720;2023-03-24T01:48:52;2.78;;;2.00;;
34982;SDS011;21187;50.976;13.720;2023-03-24T01:54:02;5.18;;;2.20;;
34982;SDS011;21187;50.976;13.720;2023-03-24T01:59:08;5.80;;;1.85;;
34982;SDS011;21187;50.976;13.720;2023-03-24T02:04:20;5.13;;;2.45;;
34982;SDS011;21187;50.976;13.720;2023-03-24T02:09:24;4.63;;;2.13;;
34982;SDS011;21187;50.976;13.720;2023-03-24T02:14:26;3.67;;;2.00;;
34982;SDS011;21187;50.976;13.720;2023-03-24T02:46:50;3.78;;;2.03;;
34982;SDS011;21187;50.976;13.720;2023-03-24T02:52:10;3.45;;;1.90;;
34982;SDS011;21187;50.976;13.720;2023-03-24T03:02:36;5.35;;;1.95;;
34982;SDS011;21187;50.976;13.720;2023-03-24T03:07:42;3.92;;;2.22;;
34982;SDS011;21187;50.976;13.720;2023-03-24T03:12:47;6.15;;;2.90;;
34982;SDS011;21187;50.976;13.720;2023-03-24T03:23:12;5.53;;;2.03;;
34982;SDS011;21187;50.976;13.720;2023-03-24T03:28:19;3.35;;;1.70;;
34982;SDS011;21187;50.976;13.720;2023-03-24T03:39:29;3.08;;;1.80;;
34982;SDS011;21187;50.976;13.720;2023-03-24T03:44:37;5.20;;;1.85;;
34982;SDS011;21187;50.976;13.720;2023-03-24T03:49:40;4.75;;;2.47;;
34982;SDS011;21187;50.976;13.720;2023-03-24T03:54:43;4.57;;;1.90;;
34982;SDS011;21187;50.976;13.720;2023-03-24T03:59:46;2.65;;;1.42;;
34982;SDS011;21187;50.976;13.720;2023-03-24T04:04:53;2.33;;;1.42;;
34982;SDS011;21187;50.976;13.720;2023-03-24T04:10:28;3.17;;;1.90;;
34982;SDS011;21187;50.976;13.720;2023-03-24T04:15:45;3.30;;;1.75;;
34982;SDS011;21187;50.976;13.720;2023-03-24T04:27:02;3.33;;;1.63;;
34982;SDS011;21187;50.976;13.720;2023-03-24T04:32:13;5.20;;;1.90;;
34982;SDS011;21187;50.976;13.720;2023-03-24T04:37:23;2.35;;;1.70;;
34982;SDS011;21187;50.976;13.720;2023-03-24T04:42:32;3.13;;;1.80;;
34982;SDS011;21187;50.976;13.720;2023-03-24T04:47:41;5.07;;;1.98;;
34982;SDS011;21187;50.976;13.720;2023-03-24T04:53:09;3.60;;;1.55;;
34982;SDS011;21187;50.976;13.720;2023-03-24T04:58:12;3.13;;;1.60;;
34982;SDS011;21187;50.976;13.720;2023-03-24T05:03:16;2.63;;;1.60;;
34982;SDS011;21187;50.976;13.720;2023-03-24T05:08:19;2.47;;;1.80;;
34982;SDS011;21187;50.976;13.720;2023-03-24T05:13:23;4.13;;;1.75;;
34982;SDS011;21187;50.976;13.720;2023-03-24T05:18:29;1.77;;;1.40;;
34982;SDS011;21187;50.976;13.720;2023-03-24T05:23:31;6.05;;;2.10;;
34982;SDS011;21187;50.976;13.720;2023-03-24T05:28:33;5.20;;;2.05;;
34982;SDS011;21187;50.976;13.720;2023-03-24T05:33:36;6.53;;;2.05;;
34982;SDS011;21187;50.976;13.720;2023-03-24T05:38:38;4.03;;;1.95;;
34982;SDS011;21187;50.976;13.720;2023-03-24T05:43:40;4.53;;;2.20;;
34982;SDS011;21187;50.976;13.720;2023-03-24T05:48:48;6.63;;;2.22;;
34982;SDS011;21187;50.976;13.720;2023-03-24T05:53:52;6.70;;;2.17;;
34982;SDS011;21187;50.976;13.720;2023-03-24T05:58:59;6.82;;;2.20;;
34982;SDS011;21187;50.976;13.720;2023-03-24T06:04:19;4.47;;;1.77;;
34982;SDS011;21187;50.976;13.720;2023-03-24T06:09:25;2.55;;;1.38;;
34982;SDS011;21187;50.976;13.720;2023-03-24T06:14:33;5.03;;;1.92;;
34982;SDS011;21187;50.976;13.720;2023-03-24T06:19:41;6.60;;;1.70;;
34982;SDS011;21187;50.976;13.720;2023-03-24T06:25:12;3.25;;;1.67;;
34982;SDS011;21187;50.976;13.720;2023-03-24T06:30:22;4.85;;;1.70;;
34982;SDS011;21187;50.976;13.720;2023-03-24T06:35:24;6.95;;;1.70;;
34982;SDS011;21187;50.976;13.720;2023-03-24T06:40:35;2.50;;;1.50;;
34982;SDS011;21187;50.976;13.720;2023-03-24T06:45:39;3.20;;;1.50;;
34982;SDS011;21187;50.976;13.720;2023-03-24T06:50:45;4.80;;;1.92;;
34982;SDS011;21187;50.976;13.720;2023-03-24T06:55:49;4.78;;;1.92;;
34982;SDS011;21187;50.976;13.720;2023-03-24T07:00:54;2.53;;;1.80;;
34982;SDS011;21187;50.976;13.720;2023-03-24T07:05:59;4.53;;;1.83;;
34982;SDS011;21187;50.976;13.720;2023-03-24T07:11:02;4.00;;;1.92;;
34982;SDS011;21187;50.976;13.720;2023-03-24T07:16:05;4.10;;;1.98;;
34982;SDS011;21187;50.976;13.720;2023-03-24T07:21:10;6.22;;;1.70;;
34982;SDS011;21187;50.976;13.720;2023-03-24T07:26:13;2.35;;;1.52;;
34982;SDS011;21187;50.976;13.720;2023-03-24T07:31:20;3.40;;;1.90;;
34982;SDS011;21187;50.976;13.720;2023-03-24T07:36:30;3.20;;;1.50;;
34982;SDS011;21187;50.976;13.720;2023-03-24T07:41:32;2.50;;;1.60;;
34982;SDS011;21187;50.976;13.720;2023-03-24T07:46:39;4.45;;;2.13;;
34982;SDS011;21187;50.976;13.720;2023-03-24T07:51:42;9.40;;;2.08;;
34982;SDS011;21187;50.976;13.720;2023-03-24T07:56:55;2.30;;;1.70;;
34982;SDS011;21187;50.976;13.720;2023-03-24T08:01:57;4.00;;;2.00;;
34982;SDS011;21187;50.976;13.720;2023-03-24T08:07:14;4.30;;;1.55;;
34982;SDS011;21187;50.976;13.720;2023-03-24T08:12:20;2.67;;;1.70;;
34982;SDS011;21187;50.976;13.720;2023-03-24T08:17:22;4.15;;;2.10;;
34982;SDS011;21187;50.976;13.720;2023-03-24T08:22:24;4.30;;;2.28;;
34982;SDS011;21187;50.976;13.720;2023-03-24T08:27:27;3.72;;;1.80;;
34982;SDS011;21187;50.976;13.720;2023-03-24T08:32:29;4.70;;;2.20;;
34982;SDS011;21187;50.976;13.720;2023-03-24T08:37:31;3.50;;;2.00;;
34982;SDS011;21187;50.976;13.720;2023-03-24T08:42:33;3.25;;;1.98;;
34982;SDS011;21187;50.976;13.720;2023-03-24T08:47:35;4.88;;;1.92;;
34982;SDS011;21187;50.976;13.720;2023-03-24T08:52:37;4.18;;;2.15;;
34982;SDS011;21187;50.976;13.720;2023-03-24T08:57:38;4.43;;;1.90;;
34982;SDS011;21187;50.976;13.720;2023-03-24T09:02:44;2.60;;;1.48;;
34982;SDS011;21187;50.976;13.720;2023-03-24T09:07:48;3.78;;;1.70;;
34982;SDS011;21187;50.976;13.720;2023-03-24T09:12:52;3.67;;;2.10;;
34982;SDS011;21187;50.976;13.720;2023-03-24T09:17:53;3.15;;;1.70;;
34982;SDS011;21187;50.976;13.720;2023-03-24T09:22:55;5.25;;;2.17;;
34982;SDS011;21187;50.976;13.720;2023-03-24T09:27:57;4.68;;;1.77;;
34982;SDS011;21187;50.976;13.720;2023-03-24T09:32:59;4.55;;;2.00;;
34982;SDS011;21187;50.976;13.720;2023-03-24T09:38:01;7.47;;;2.25;;
34982;SDS011;21187;50.976;13.720;2023-03-24T09:43:04;4.97;;;2.30;;
34982;SDS011;21187;50.976;13.720;2023-03-24T09:48:16;6.17;;;2.03;;
34982;SDS011;21187;50.976;13.720;2023-03-24T09:53:41;5.32;;;2.22;;
34982;SDS011;21187;50.976;13.720;2023-03-24T09:58:52;6.53;;;2.00;;
34982;SDS011;21187;50.976;13.720;2023-03-24T10:04:20;4.70;;;1.95;;
34982;SDS011;21187;50.976;13.720;2023-03-24T10:09:29;3.35;;;1.67;;
34982;SDS011;21187;50.976;13.720;2023-03-24T10:14:50;2.70;;;1.25;;
34982;SDS011;21187;50.976;13.720;2023-03-24T10:25:19;1.40;;;1.10;;
34982;SDS011;21187;50.976;13.720;2023-03-24T10:30:27;1.08;;;0.90;;
34982;SDS011;21187;50.976;13.720;2023-03-24T10:35:33;3.45;;;0.70;;
34982;SDS011;21187;50.976;13.720;2023-03-24T10:40:38;1.25;;;0.80;;
34982;SDS011;21187;50.976;13.720;2023-03-24T10:45:43;0.80;;;0.60;;
34982;SDS011;21187;50.976;13.720;2023-03-24T10:50:48;0.70;;;0.60;;
34982;SDS011;21187;50.976;13.720;2023-03-24T10:55:50;3.45;;;0.77;;
34982;SDS011;21187;50.976;13.720;2023-03-24T11:00:52;0.75;;;0.55;;
34982;SDS011;21187;50.976;13.720;2023-03-24T11:05:58;0.50;;;0.45;;
34982;SDS011;21187;50.976;13.720;2023-03-24T11:11:47;6.13;;;0.70;;
34982;SDS011;21187;50.976;13.720;2023-03-24T11:16:37;0.85;;;0.47;;
34982;SDS011;21187;50.976;13.720;2023-03-24T11:21:43;0.98;;;0.45;;
34982;SDS011;21187;50.976;13.720;2023-03-24T11:31:57;3.03;;;0.90;;
34982;SDS011;21187;50.976;13.720;2023-03-24T11:42:25;2.00;;;0.50;;
34982;SDS011;21187;50.976;13.720;2023-03-24T11:47:29;0.63;;;0.63;;
34982;SDS011;21187;50.976;13.720;2023-03-24T11:52:37;0.65;;;0.60;;
34982;SDS011;21187;50.976;13.720;2023-03-24T12:08:22;1.27;;;0.75;;
34982;SDS011;21187;50.976;13.720;2023-03-24T12:13:39;0.80;;;0.65;;
34982;SDS011;21187;50.976;13.720;2023-03-24T12:35:20;0.50;;;0.50;;
34982;SDS011;21187;50.976;13.720;2023-03-24T12:45:33;1.05;;;0.60;;
34982;SDS011;21187;50.976;13.720;2023-03-24T12:56:18;1.40;;;0.50;;
34982;SDS011;21187;50.976;13.720;2023-03-24T13:01:25;0.40;;;0.40;;
34982;SDS011;21187;50.976;13.720;2023-03-24T13:17:32;1.23;;;0.80;;
34982;SDS011;21187;50.976;13.720;2023-03-24T13:22:45;1.13;;;0.70;;
34982;SDS011;21187;50.976;13.720;2023-03-24T13:27:48;1.42;;;0.80;;
34982;SDS011;21187;50.976;13.720;2023-03-24T13:33:02;0.68;;;0.57;;
34982;SDS011;21187;50.976;13.720;2023-03-24T13:43:28;1.75;;;0.82;;
34982;SDS011;21187;50.976;13.720;2023-03-24T13:48:34;1.20;;;0.60;;
34982;SDS011;21187;50.976;13.720;2023-03-24T13:53:38;2.55;;;1.10;;
34982;SDS011;21187;50.976;13.720;2023-03-24T13:58:47;5.53;;;2.17;;
34982;SDS011;21187;50.976;13.720;2023-03-24T14:09:27;7.32;;;1.05;;
34982;SDS011;21187;50.976;13.720;2023-03-24T14:14:35;5.68;;;1.05;;
34982;SDS011;21187;50.976;13.720;2023-03-24T14:24:59;4.97;;;0.85;;
34982;SDS011;21187;50.976;13.720;2023-03-24T14:40:40;4.28;;;1.23;;
34982;SDS011;21187;50.976;13.720;2023-03-24T14:45:55;2.80;;;0.82;;
34982;SDS011;21187;50.976;13.720;2023-03-24T14:56:37;4.20;;;0.67;;
34982;SDS011;21187;50.976;13.720;2023-03-24T15:01:42;1.65;;;0.80;;
34982;SDS011;21187;50.976;13.720;2023-03-24T15:06:49;2.80;;;1.13;;
34982;SDS011;21187;50.976;13.720;2023-03-24T15:11:58;4.97;;;0.82;;
34982;SDS011;21187;50.976;13.720;2023-03-24T15:17:20;3.33;;;0.93;;
34982;SDS011;21187;50.976;13.720;2023-03-24T15:22:27;1.50;;;1.02;;
34982;SDS011;21187;50.976;13.720;2023-03-24T15:27:28;1.70;;;1.00;;
34982;SDS011;21187;50.976;13.720;2023-03-24T15:32:33;1.35;;;1.02;;
34982;SDS011;21187;50.976;13.720;2023-03-24T15:37:40;9.23;;;3.08;;
34982;SDS011;21187;50.976;13.720;2023-03-24T15:42:48;11.18;;;1.65;;
34982;SDS011;21187;50.976;13.720;2023-03-24T15:47:50;3.40;;;1.13;;
34982;SDS011;21187;50.976;13.720;2023-03-24T15:52:58;2.33;;;1.20;;
34982;SDS011;21187;50.976;13.720;2023-03-24T15:58:22;2.92;;;0.82;;
34982;SDS011;21187;50.976;13.720;2023-03-24T16:03:28;3.63;;;1.10;;
34982;SDS011;21187;50.976;13.720;2023-03-24T16:08:34;2.08;;;0.70;;
34982;SDS011;21187;50.976;13.720;2023-03-24T16:18:45;2.13;;;0.90;;
34982;SDS011;21187;50.976;13.720;2023-03-24T16:23:49;4.38;;;1.10;;
34982;SDS011;21187;50.976;13.720;2023-03-24T16:28:53;1.70;;;0.93;;
34982;SDS011;21187;50.976;13.720;2023-03-24T16:33:56;4.25;;;1.13;;
34982;SDS011;21187;50.976;13.720;2023-03-24T16:38:58;1.33;;;0.77;;
34982;SDS011;21187;50.976;13.720;2023-03-24T16:44:02;1.08;;;0.73;;
34982;SDS011;21187;50.976;13.720;2023-03-24T16:49:04;4.88;;;1.17;;
34982;SDS011;21187;50.976;13.720;2023-03-24T16:54:08;2.28;;;0.90;;
34982;SDS011;21187;50.976;13.720;2023-03-24T16:59:10;6.30;;;1.00;;
34982;SDS011;21187;50.976;13.720;2023-03-24T17:09:21;1.30;;;0.88;;
34982;SDS011;21187;50.976;13.720;2023-03-24T17:14:24;1.95;;;1.00;;
34982;SDS011;21187;50.976;13.720;2023-03-24T17:19:26;4.35;;;1.05;;
34982;SDS011;21187;50.976;13.720;2023-03-24T17:24:28;1.45;;;0.90;;
34982;SDS011;21187;50.976;13.720;2023-03-24T17:29:36;3.55;;;0.95;;
34982;SDS011;21187;50.976;13.720;2023-03-24T17:34:38;3.70;;;0.93;;
34982;SDS011;21187;50.976;13.720;2023-03-24T17:39:42;1.73;;;1.00;;
34982;SDS011;21187;50.976;13.720;2023-03-24T17:44:44;3.53;;;1.08;;
34982;SDS011;21187;50.976;13.720;2023-03-24T17:49:51;3.42;;;1.92;;
34982;SDS011;21187;50.976;13.720;2023-03-24T17:54:53;2.50;;;1.27;;
34982;SDS011;21187;50.976;13.720;2023-03-24T17:59:56;2.13;;;1.17;;
34982;SDS011;21187;50.976;13.720;2023-03-24T18:04:58;5.88;;;1.70;;
34982;SDS011;21187;50.976;13.720;2023-03-24T18:10:00;11.38;;;4.25;;
34982;SDS011;21187;50.976;13.720;2023-03-24T18:15:03;21.48;;;5.70;;
34982;SDS011;21187;50.976;13.720;2023-03-24T18:20:07;2.92;;;2.28;;
34982;SDS011;21187;50.976;13.720;2023-03-24T18:25:11;6.93;;;2.08;;
34982;SDS011;21187;50.976;13.720;2023-03-24T18:30:14;3.42;;;1.63;;
34982;SDS011;21187;50.976;13.720;2023-03-24T18:35:17;2.05;;;1.33;;
34982;SDS011;21187;50.976;13.720;2023-03-24T18:40:19;6.82;;;2.70;;
34982;SDS011;21187;50.976;13.720;2023-03-24T18:45:21;5.97;;;2.72;;
34982;SDS011;21187;50.976;13.720;2023-03-24T18:50:23;3.08;;;1.58;;
34982;SDS011;21187;50.976;13.720;2023-03-24T18:55:25;5.47;;;2.05;;
34982;SDS011;21187;50.976;13.720;2023-03-24T19:00:27;4.53;;;1.25;;
34982;SDS011;21187;50.976;13.720;2023-03-24T19:05:30;4.05;;;2.08;;
34982;SDS011;21187;50.976;13.720;2023-03-24T19:10:33;7.35;;;3.08;;
34982;SDS011;21187;50.976;13.720;2023-03-24T19:15:36;10.48;;;3.42;;
34982;SDS011;21187;50.976;13.720;2023-03-24T19:20:38;4.13;;;1.83;;
34982;SDS011;21187;50.976;13.720;2023-03-24T19:25:41;2.90;;;1.30;;
34982;SDS011;21187;50.976;13.720;2023-03-24T19:30:44;6.25;;;1.48;;
34982;SDS011;21187;50.976;13.720;2023-03-24T19:35:46;5.03;;;1.40;;
34982;SDS011;21187;50.976;13.720;2023-03-24T19:40:50;6.80;;;1.77;;
34982;SDS011;21187;50.976;13.720;2023-03-24T19:45:53;5.80;;;1.70;;
34982;SDS011;21187;50.976;13.720;2023-03-24T19:50:56;2.90;;;1.73;;
34982;SDS011;21187;50.976;13.720;2023-03-24T19:55:58;5.53;;;1.77;;
34982;SDS011;21187;50.976;13.720;2023-03-24T20:01:01;6.13;;;2.15;;
34982;SDS011;21187;50.976;13.720;2023-03-24T20:06:04;4.60;;;1.60;;
34982;SDS011;21187;50.976;13.720;2023-03-24T20:11:09;4.78;;;1.52;;
34982;SDS011;21187;50.976;13.720;2023-03-24T20:16:12;5.95;;;1.45;;
34982;SDS011;21187;50.976;13.720;2023-03-24T20:21:16;2.38;;;1.10;;
34982;SDS011;21187;50.976;13.720;2023-03-24T20:26:20;5.20;;;1.65;;
34982;SDS011;21187;50.976;13.720;2023-03-24T20:31:22;4.97;;;1.38;;
34982;SDS011;21187;50.976;13.720;2023-03-24T20:36:25;2.42;;;1.23;;
34982;SDS011;21187;50.976;13.720;2023-03-24T20:41:31;5.28;;;1.40;;
34982;SDS011;21187;50.976;13.720;2023-03-24T20:46:37;10.27;;;3.22;;
34982;SDS011;21187;50.976;13.720;2023-03-24T20:51:39;4.95;;;1.50;;
34982;SDS011;21187;50.976;13.720;2023-03-24T20:56:42;4.43;;;1.42;;
34982;SDS011;21187;50.976;13.720;2023-03-24T21:01:44;4.20;;;1.27;;
34982;SDS011;21187;50.976;13.720;2023-03-24T21:06:49;4.90;;;1.55;;
34982;SDS011;21187;50.976;13.720;2023-03-24T21:11:51;3.08;;;1.20;;
34982;SDS011;21187;50.976;13.720;2023-03-24T21:16:53;4.32;;;0.90;;
34982;SDS011;21187;50.976;13.720;2023-03-24T21:21:55;5.05;;;1.30;;
34982;SDS011;21187;50.976;13.720;2023-03-24T21:26:57;4.32;;;1.17;;
34982;SDS011;21187;50.976;13.720;2023-03-24T21:32:01;1.73;;;1.02;;
34982;SDS011;21187;50.976;13.720;2023-03-24T21:37:03;2.85;;;1.10;;
34982;SDS011;21187;50.976;13.720;2023-03-24T21:42:05;8.02;;;1.25;;
34982;SDS011;21187;50.976;13.720;2023-03-24T21:47:08;4.32;;;1.23;;
34982;SDS011;21187;50.976;13.720;2023-03-24T21:52:10;4.03;;;1.25;;
34982;SDS011;21187;50.976;13.720;2023-03-24T21:57:11;3.67;;;1.17;;
34982;SDS011;21187;50.976;13.720;2023-03-24T22:02:14;10.70;;;1.38;;
34982;SDS011;21187;50.976;13.720;2023-03-24T22:07:18;1.58;;;1.05;;
34982;SDS011;21187;50.976;13.720;2023-03-24T22:12:22;3.67;;;1.35;;
34982;SDS011;21187;50.976;13.720;2023-03-24T22:17:24;4.07;;;1.30;;
34982;SDS011;21187;50.976;13.720;2023-03-24T22:22:26;4.57;;;1.38;;
34982;SDS011;21187;50.976;13.720;2023-03-24T22:27:28;5.03;;;1.77;;
34982;SDS011;21187;50.976;13.720;2023-03-24T22:32:32;6.03;;;1.73;;
34982;SDS011;21187;50.976;13.720;2023-03-24T22:37:34;4.65;;;1.30;;
34982;SDS011;21187;50.976;13.720;2023-03-24T22:42:36;3.00;;;1.10;;
34982;SDS011;21187;50.976;13.720;2023-03-24T22:47:38;9.15;;;1.70;;
34982;SDS011;21187;50.976;13.720;2023-03-24T22:52:39;5.22;;;1.58;;
34982;SDS011;21187;50.976;13.720;2023-03-24T22:57:41;6.80;;;1.80;;
34982;SDS011;21187;50.976;13.720;2023-03-24T23:02:43;3.25;;;1.10;;
34982;SDS011;21187;50.976;13.720;2023-03-24T23:07:45;6.00;;;2.00;;
34982;SDS011;21187;50.976;13.720;2023-03-24T23:12:47;8.32;;;1.45;;
34982;SDS011;21187;50.976;13.720;2023-03-24T23:17:52;8.27;;;1.90;;
34982;SDS011;21187;50.976;13.720;2023-03-24T23:22:54;4.43;;;1.42;;
34982;SDS011;21187;50.976;13.720;2023-03-24T23:27:57;2.67;;;1.20;;
34982;SDS011;21187;50.976;13.720;2023-03-24T23:32:59;5.20;;;1.60;;
34982;SDS011;21187;50.976;13.720;2023-03-24T23:38:01;3.42;;;1.55;;
34982;SDS011;21187;50.976;13.720;2023-03-24T23:43:03;3.78;;;1.42;;
34982;SDS011;21187;50.976;13.720;2023-03-24T23:48:05;10.15;;;1.48;;
34982;SDS011;21187;50.976;13.720;2023-03-24T23:53:07;6.93;;;1.83;;
34982;SDS011;21187;50.976;13.720;2023-03-24T23:58:09;5.45;;;1.88;;
